Time;durP1;ratioP1;P1;durP2;ratioP2;P2;SDS_P1;SDS_P2;PMS_P1;PMS_P2;Temp;Humidity;BMP_temperature;BMP_pressure;BME280_temperature;BME280_humidity;BME280_pressure;Samples;Min_cycle;Max_cycle;Signal;HPM_P1;HPM_P2
2024/04/08 00:01:51;;;;;;;13.70;1.83;;;16.70;99.90;;;;;;5038086;28;20459;-85
2024/04/08 00:04:17;;;;;;;14.23;1.70;;;16.70;99.90;;;;;;5019491;28;20169;-84
2024/04/08 00:06:43;;;;;;;17.40;2.40;;;16.70;99.90;;;;;;5019406;28;20540;-84
2024/04/08 00:09:08;;;;;;;17.63;2.17;;;16.70;99.90;;;;;;5018801;28;20166;-84
2024/04/08 00:11:34;;;;;;;16.17;2.03;;;16.60;99.90;;;;;;5036272;28;20212;-85
2024/04/08 00:14:00;;;;;;;17.50;2.30;;;16.50;99.90;;;;;;5035877;28;20208;-85
2024/04/08 00:16:25;;;;;;;15.53;2.47;;;16.50;99.90;;;;;;5017874;28;20169;-85
2024/04/08 00:18:51;;;;;;;14.13;1.90;;;16.50;99.90;;;;;;5035357;28;20177;-85
2024/04/08 00:21:17;;;;;;;16.63;2.20;;;16.50;99.90;;;;;;5035120;28;20206;-85
2024/04/08 00:23:42;;;;;;;17.37;2.23;;;16.60;99.90;;;;;;5035302;28;20162;-85
2024/04/08 00:26:08;;;;;;;16.87;2.00;;;16.50;99.90;;;;;;5035168;28;20212;-85
2024/04/08 00:28:34;;;;;;;14.87;1.90;;;16.40;99.90;;;;;;5017315;28;20635;-85
2024/04/08 00:31:07;;;;;;;15.73;1.80;;;16.40;99.90;;;;;;5034979;28;20412;-85
2024/04/08 00:33:34;;;;;;;14.90;1.60;;;16.30;99.90;;;;;;5035331;28;20893;-85
2024/04/08 00:36:00;;;;;;;14.00;1.70;;;16.30;99.90;;;;;;5035015;28;20401;-85
2024/04/08 00:38:26;;;;;;;14.90;1.60;;;16.20;99.90;;;;;;5034990;28;20408;-85
2024/04/08 00:40:52;;;;;;;16.93;1.90;;;16.20;99.90;;;;;;5034882;28;20467;-85
2024/04/08 00:43:19;;;;;;;14.10;2.00;;;16.10;99.90;;;;;;5034851;28;20416;-85
2024/04/08 00:45:49;;;;;;;19.03;2.37;;;16.10;99.90;;;;;;5035148;28;20531;-84
2024/04/08 00:48:15;;;;;;;15.37;1.70;;;16.00;99.90;;;;;;5035239;28;20400;-85
2024/04/08 00:50:44;;;;;;;14.23;2.07;;;16.00;99.90;;;;;;5017498;28;20443;-84
2024/04/08 00:53:11;;;;;;;17.77;1.87;;;16.00;99.90;;;;;;5038169;28;20490;-84
2024/04/08 00:55:38;;;;;;;15.30;2.30;;;15.90;99.90;;;;;;5037397;28;20805;-84
2024/04/08 00:58:04;;;;;;;15.30;2.00;;;15.70;99.90;;;;;;5019210;28;20408;-84
2024/04/08 01:00:30;;;;;;;16.33;2.23;;;15.70;99.90;;;;;;5037210;28;20464;-84
2024/04/08 01:03:03;;;;;;;23.90;3.83;;;15.80;99.90;;;;;;5036102;28;20420;-84
2024/04/08 01:05:30;;;;;;;15.40;2.57;;;15.80;99.90;;;;;;5017311;28;20173;-84
2024/04/08 01:07:56;;;;;;;18.37;3.43;;;15.80;99.90;;;;;;5035781;28;20443;-84
2024/04/08 01:10:21;;;;;;;18.57;2.97;;;15.80;99.90;;;;;;5034659;28;20514;-85
2024/04/08 01:12:47;;;;;;;18.67;2.97;;;15.80;99.90;;;;;;5034312;28;20421;-84
2024/04/08 01:15:13;;;;;;;15.60;2.80;;;15.70;99.90;;;;;;5034307;28;20180;-84
2024/04/08 01:17:39;;;;;;;24.30;3.53;;;15.70;99.90;;;;;;5105436;22;22856;-84
2024/04/08 01:20:06;;;;;;;14.53;2.60;;;15.80;99.90;;;;;;5016331;28;20470;-85
2024/04/08 01:22:32;;;;;;;19.23;3.17;;;15.70;99.90;;;;;;5034069;28;20662;-85
2024/04/08 01:24:58;;;;;;;14.23;2.17;;;15.70;99.90;;;;;;5016247;28;20914;-85
2024/04/08 01:27:24;;;;;;;15.17;2.40;;;15.70;99.90;;;;;;5033979;28;20405;-85
2024/04/08 01:29:50;;;;;;;16.87;2.40;;;15.70;99.90;;;;;;5033963;28;20408;-85
2024/04/08 01:32:15;;;;;;;15.17;2.70;;;15.60;99.90;;;;;;5033806;28;20475;-85
2024/04/08 01:34:41;;;;;;;19.33;2.97;;;15.60;99.90;;;;;;5034187;28;20527;-85
2024/04/08 01:37:07;;;;;;;18.37;2.87;;;15.60;99.90;;;;;;5034136;28;20631;-85
2024/04/08 01:39:32;;;;;;;15.90;3.33;;;15.50;99.90;;;;;;5033784;28;20170;-85
2024/04/08 01:41:58;;;;;;;20.63;3.30;;;15.50;99.90;;;;;;5033600;28;20280;-85
2024/04/08 01:44:24;;;;;;;15.63;2.97;;;15.30;99.90;;;;;;5033159;28;20240;-85
2024/04/08 01:46:50;;;;;;;18.17;3.10;;;15.30;99.90;;;;;;5033939;28;20404;-85
2024/04/08 01:49:15;;;;;;;17.03;2.57;;;15.10;99.90;;;;;;5016231;28;20173;-85
2024/04/08 01:51:41;;;;;;;15.43;2.20;;;14.90;99.90;;;;;;5033579;28;20209;-85
2024/04/08 01:54:12;;;;;;;20.40;3.13;;;14.90;99.90;;;;;;5034054;28;20170;-85
2024/04/08 01:56:40;;;;;;;15.73;2.93;;;14.90;99.90;;;;;;5033714;28;20150;-85
2024/04/08 01:59:06;;;;;;;15.33;2.30;;;15.00;99.90;;;;;;5033462;28;20484;-85
2024/04/08 02:01:32;;;;;;;16.43;2.87;;;15.10;99.90;;;;;;5033277;28;21044;-86
2024/04/08 02:03:57;;;;;;;15.97;2.83;;;15.10;99.90;;;;;;5033374;28;20173;-86
2024/04/08 02:06:23;;;;;;;14.53;2.70;;;14.90;99.90;;;;;;5033638;28;20563;-85
2024/04/08 02:08:49;;;;;;;14.97;2.97;;;14.70;99.90;;;;;;5033590;28;20170;-85
2024/04/08 02:11:14;;;;;;;17.13;2.60;;;14.70;99.90;;;;;;5033532;28;20277;-85
2024/04/08 02:13:41;;;;;;;18.70;3.13;;;14.70;99.90;;;;;;5033439;28;20170;-85
2024/04/08 02:16:08;;;;;;;15.87;2.77;;;14.60;99.90;;;;;;5015746;28;20647;-85
2024/04/08 02:18:34;;;;;;;17.43;3.07;;;14.50;99.90;;;;;;5015368;28;20440;-85
2024/04/08 02:21:03;;;;;;;16.47;3.30;;;14.40;99.90;;;;;;5033019;28;20436;-85
2024/04/08 02:23:29;;;;;;;16.00;2.67;;;14.40;99.90;;;;;;5033088;28;20407;-85
2024/04/08 02:25:54;;;;;;;15.03;2.50;;;14.30;99.90;;;;;;5033510;28;20801;-86
2024/04/08 02:28:20;;;;;;;15.87;2.47;;;14.30;99.90;;;;;;5033409;28;20616;-86
2024/04/08 02:30:45;;;;;;;14.80;2.60;;;14.30;99.90;;;;;;5015354;28;20174;-86
2024/04/08 02:33:11;;;;;;;14.70;1.90;;;14.30;99.90;;;;;;5032960;28;20182;-85
2024/04/08 02:35:37;;;;;;;15.90;2.60;;;14.30;99.90;;;;;;5033325;28;20754;-85
2024/04/08 02:38:06;;;;;;;13.53;1.70;;;14.30;99.90;;;;;;5033293;28;20639;-86
2024/04/08 02:40:32;;;;;;;15.60;2.20;;;14.40;99.90;;;;;;5032827;28;20441;-86
2024/04/08 02:42:59;;;;;;;14.50;2.27;;;14.50;99.90;;;;;;5032844;28;20785;-86
2024/04/08 02:45:25;;;;;;;16.03;2.50;;;14.40;99.90;;;;;;5015198;28;20526;-86
2024/04/08 02:47:50;;;;;;;17.53;2.80;;;14.40;99.90;;;;;;5033448;28;20483;-86
2024/04/08 02:50:16;;;;;;;14.93;2.03;;;14.20;99.90;;;;;;5015189;28;20177;-86
2024/04/08 02:52:42;;;;;;;16.37;3.00;;;14.10;99.90;;;;;;5032756;28;20194;-85
2024/04/08 02:55:07;;;;;;;15.77;2.70;;;14.10;99.90;;;;;;5015137;28;20181;-86
2024/04/08 02:57:33;;;;;;;14.33;2.03;;;14.10;99.90;;;;;;5035770;28;20174;-86
2024/04/08 03:00:09;;;;;;;;;;;;;;;;;;;;;
2024/04/08 03:02:35;;;;;;;15.77;2.80;;;14.10;99.90;;;;;;5033982;28;20194;-85
2024/04/08 03:05:00;;;;;;;15.03;2.50;;;14.10;99.90;;;;;;5036718;28;20497;-86
2024/04/08 03:07:26;;;;;;;14.97;3.00;;;14.00;99.90;;;;;;5036586;28;20161;-86
2024/04/08 03:09:52;;;;;;;15.30;2.20;;;14.00;99.90;;;;;;5018847;28;20166;-86
2024/04/08 03:12:18;;;;;;;16.83;2.93;;;13.90;99.90;;;;;;5018772;28;20599;-85
2024/04/08 03:14:43;;;;;;;16.90;2.90;;;13.90;99.90;;;;;;5019029;28;20400;-86
2024/04/08 03:17:09;;;;;;;20.17;3.53;;;14.00;99.90;;;;;;5036695;28;20196;-86
2024/04/08 03:19:35;;;;;;;17.53;3.87;;;14.00;99.90;;;;;;5019157;28;20178;-86
2024/04/08 03:22:03;;;;;;;15.67;3.53;;;14.00;99.90;;;;;;5036242;28;20540;-86
2024/04/08 03:24:30;;;;;;;15.77;2.83;;;13.90;99.90;;;;;;5036322;28;20228;-86
2024/04/08 03:26:55;;;;;;;21.33;4.07;;;13.80;99.90;;;;;;5036334;28;20404;-85
2024/04/08 03:29:21;;;;;;;16.87;3.57;;;13.70;99.90;;;;;;5036524;28;20393;-85
2024/04/08 03:31:47;;;;;;;17.57;3.80;;;13.70;99.90;;;;;;5036097;28;20189;-85
2024/04/08 03:34:13;;;;;;;14.17;2.90;;;13.60;99.90;;;;;;5018415;28;20316;-85
2024/04/08 03:36:39;;;;;;;15.70;3.53;;;13.50;99.90;;;;;;5036408;28;20440;-85
2024/04/08 03:39:05;;;;;;;18.07;3.50;;;13.40;99.90;;;;;;5036057;28;20631;-86
2024/04/08 03:41:31;;;;;;;16.90;3.37;;;13.50;99.90;;;;;;5036128;28;20547;-86
2024/04/08 03:43:56;;;;;;;16.40;2.97;;;13.60;99.90;;;;;;5018293;28;20169;-86
2024/04/08 03:46:22;;;;;;;16.00;3.30;;;13.60;99.90;;;;;;5035947;28;20909;-86
2024/04/08 03:48:48;;;;;;;17.73;3.90;;;13.60;99.90;;;;;;5035867;28;20170;-86
2024/04/08 03:51:15;;;;;;;15.23;3.03;;;13.50;99.90;;;;;;5035754;28;20405;-86
2024/04/08 03:53:41;;;;;;;17.97;2.83;;;13.40;99.90;;;;;;5035834;28;20747;-86
2024/04/08 03:56:08;;;;;;;17.00;3.17;;;13.40;99.90;;;;;;5035981;28;20419;-86
2024/04/08 03:58:34;;;;;;;17.17;3.80;;;13.40;99.90;;;;;;5036296;28;20235;-86
2024/04/08 04:01:00;;;;;;;16.80;3.60;;;13.50;99.90;;;;;;5035514;28;20956;-86
2024/04/08 04:03:26;;;;;;;16.20;3.17;;;13.50;99.90;;;;;;5017876;28;20428;-86
2024/04/08 04:05:51;;;;;;;18.70;3.90;;;13.40;99.90;;;;;;5035813;28;20408;-86
2024/04/08 04:08:35;;;;;;;16.80;3.27;;;13.30;99.90;;;;;;5017200;28;20412;-86
2024/04/08 04:11:01;;;;;;;14.80;3.17;;;13.20;99.90;;;;;;5017518;28;20212;-85
2024/04/08 04:13:27;;;;;;;16.60;3.20;;;13.10;99.90;;;;;;5035684;28;20404;-86
2024/04/08 04:15:54;;;;;;;18.67;3.73;;;13.20;99.90;;;;;;5035635;28;20169;-86
2024/04/08 04:18:22;;;;;;;16.63;3.97;;;13.10;99.90;;;;;;5035324;28;20190;-86
2024/04/08 04:20:48;;;;;;;16.50;4.03;;;13.20;99.90;;;;;;5035479;28;20523;-86
2024/04/08 04:23:14;;;;;;;19.80;3.80;;;13.20;99.90;;;;;;5017464;28;20550;-86
2024/04/08 04:26:52;;;;;;;17.17;4.15;;;13.40;99.90;;;;;;5542141;25;1260902;-88
2024/04/08 04:29:17;;;;;;;20.80;4.00;;;13.40;99.90;;;;;;5546066;25;20210;-85
2024/04/08 04:31:44;;;;;;;18.40;4.27;;;13.50;99.90;;;;;;5501214;26;20553;-86
2024/04/08 04:34:10;;;;;;;17.87;3.53;;;13.50;99.90;;;;;;5602715;20;21224;-88
2024/04/08 04:36:35;;;;;;;23.03;4.10;;;13.70;99.90;;;;;;5544569;21;20482;-86
2024/04/08 04:39:03;;;;;;;19.10;4.43;;;13.70;99.90;;;;;;5440234;26;20264;-86
2024/04/08 04:41:31;;;;;;;17.20;4.47;;;13.70;99.90;;;;;;5439905;26;20308;-86
2024/04/08 04:43:57;;;;;;;17.60;4.47;;;13.70;99.90;;;;;;5440011;26;20493;-86
2024/04/08 04:46:23;;;;;;;17.30;4.30;;;13.60;99.90;;;;;;5471955;26;20430;-86
2024/04/08 04:48:48;;;;;;;18.83;4.60;;;13.50;99.90;;;;;;5472065;26;20259;-86
2024/04/08 04:51:14;;;;;;;18.70;4.70;;;13.40;99.90;;;;;;5439937;26;20573;-86
2024/04/08 04:53:39;;;;;;;21.80;4.40;;;13.40;99.90;;;;;;5471905;26;20209;-86
2024/04/08 04:56:05;;;;;;;18.30;4.40;;;13.40;99.90;;;;;;5471933;26;20256;-86
2024/04/08 04:58:31;;;;;;;20.63;4.37;;;13.30;99.90;;;;;;5471846;26;20255;-86
2024/04/08 05:00:56;;;;;;;20.50;5.13;;;13.20;99.90;;;;;;5471806;26;20256;-86
2024/04/08 05:03:22;;;;;;;20.80;5.10;;;13.20;99.90;;;;;;5439843;26;20213;-86
2024/04/08 05:05:52;;;;;;;19.30;5.20;;;13.10;99.90;;;;;;5471758;26;20209;-86
2024/04/08 05:08:18;;;;;;;21.00;4.30;;;13.10;99.90;;;;;;5471834;26;20240;-86
2024/04/08 05:10:43;;;;;;;18.73;4.67;;;13.20;99.90;;;;;;5439741;26;20430;-86
2024/04/08 05:13:14;;;;;;;20.93;5.80;;;13.20;99.90;;;;;;5439724;26;20694;-86
2024/04/08 05:15:40;;;;;;;19.33;5.13;;;13.20;99.90;;;;;;5439593;26;20216;-86
2024/04/08 05:18:08;;;;;;;19.00;5.17;;;13.20;99.90;;;;;;5471575;26;20426;-86
2024/04/08 05:20:59;;;;;;;26.30;5.97;;;13.30;99.90;;;;;;5585144;21;20588;-86
2024/04/08 05:23:52;;;;;;;18.47;5.77;;;13.30;99.90;;;;;;5402466;26;20424;-86
2024/04/08 05:26:27;;;;;;;23.87;5.50;;;13.40;99.90;;;;;;5402633;26;20425;-86
2024/04/08 05:29:50;;;;;;;21.17;6.27;;;13.50;99.90;;;;;;5401500;26;20488;-86
2024/04/08 05:32:14;;;;;;;19.97;4.63;;;13.40;99.90;;;;;;5394266;26;20855;-86
2024/04/08 05:34:48;;;;;;;21.50;6.10;;;13.40;99.90;;;;;;5401621;26;20736;-86
2024/04/08 05:37:41;;;;;;;22.37;6.67;;;13.30;99.90;;;;;;5392654;26;20962;-86
2024/04/08 05:40:13;;;;;;;21.00;5.63;;;13.40;99.90;;;;;;5386599;26;20390;-86
2024/04/08 05:42:40;;;;;;;20.80;5.90;;;13.40;99.90;;;;;;5355693;26;20528;-86
2024/04/08 05:45:06;;;;;;;20.40;6.23;;;13.30;99.90;;;;;;5386634;26;20390;-86
2024/04/08 05:47:53;;;;;;;23.47;5.80;;;13.30;99.90;;;;;;5386126;26;20849;-86
2024/04/08 05:50:23;;;;;;;20.53;6.17;;;13.30;99.90;;;;;;5386469;26;20386;-86
2024/04/08 05:53:03;;;;;;;20.40;6.00;;;13.30;99.90;;;;;;5385712;26;20450;-86
2024/04/08 05:55:30;;;;;;;18.67;5.00;;;13.40;99.90;;;;;;5386168;26;20501;-86
2024/04/08 05:58:14;;;;;;;20.50;6.13;;;13.40;99.90;;;;;;5355110;26;20453;-86
2024/04/08 06:00:52;;;;;;;24.07;7.17;;;13.50;99.90;;;;;;5386225;26;20846;-86
2024/04/08 06:03:26;;;;;;;20.13;5.50;;;13.60;99.90;;;;;;5385343;26;20457;-86
2024/04/08 06:06:46;;;;;;;26.30;7.77;;;13.60;99.90;;;;;;5385642;26;20390;-86
2024/04/08 06:09:31;;;;;;;19.93;5.37;;;13.70;99.90;;;;;;5316302;26;20974;-86
2024/04/08 06:11:57;;;;;;;20.20;6.10;;;13.70;99.90;;;;;;5354567;26;20904;-86
2024/04/08 06:14:35;;;;;;;;;;;;;;;;;;;;;
2024/04/08 06:17:10;;;;;;;21.10;6.80;;;13.80;99.90;;;;;;5385542;26;20172;-86
2024/04/08 06:19:36;;;;;;;17.70;5.27;;;13.90;99.90;;;;;;5385443;26;20546;-86
2024/04/08 06:22:55;;;;;;;25.43;5.93;;;14.00;99.90;;;;;;5408101;21;21058;-86
2024/04/08 06:25:23;;;;;;;18.33;5.77;;;14.10;99.90;;;;;;5312814;27;20311;-86
2024/04/08 06:27:49;;;;;;;21.30;7.50;;;14.10;99.90;;;;;;5313202;27;20444;-86
2024/04/08 06:30:41;;;;;;;20.03;6.33;;;14.20;99.90;;;;;;5313001;27;20385;-86
2024/04/08 06:33:17;;;;;;;20.77;7.03;;;14.30;99.90;;;;;;5304637;26;20217;-86
2024/04/08 06:35:44;;;;;;;22.47;6.83;;;14.40;99.90;;;;;;5346364;26;20564;-86
2024/04/08 06:38:16;;;;;;;28.97;8.67;;;14.50;99.90;;;;;;5385646;26;20506;-86
2024/04/08 06:40:45;;;;;;;30.63;7.67;;;14.60;99.90;;;;;;5385840;26;20525;-86
2024/04/08 06:43:25;;;;;;;20.80;6.87;;;14.70;99.90;;;;;;5384955;26;20457;-86
2024/04/08 06:45:57;;;;;;;22.60;7.67;;;14.70;99.90;;;;;;5354435;26;20441;-86
2024/04/08 06:48:32;;;;;;;25.50;6.70;;;14.80;99.90;;;;;;5352565;26;21002;-86
2024/04/08 06:51:05;;;;;;;21.60;6.97;;;14.90;99.90;;;;;;5354210;26;20449;-83
2024/04/08 06:53:31;;;;;;;26.70;8.00;;;15.00;99.90;;;;;;5354614;26;20446;-86
2024/04/08 06:56:00;;;;;;;21.87;7.90;;;15.10;99.90;;;;;;5384709;26;20493;-86
2024/04/08 06:58:25;;;;;;;28.10;7.57;;;15.20;99.90;;;;;;5354600;26;20220;-86
2024/04/08 07:00:51;;;;;;;24.90;7.60;;;15.20;99.90;;;;;;5384978;26;20552;-86
2024/04/08 07:03:19;;;;;;;21.50;6.93;;;15.20;99.90;;;;;;5353978;26;20263;-86
2024/04/08 07:05:46;;;;;;;22.63;7.60;;;15.20;99.90;;;;;;5383235;26;20624;-86
2024/04/08 07:08:12;;;;;;;23.50;5.73;;;15.30;99.90;;;;;;5353832;26;20972;-86
2024/04/08 07:10:38;;;;;;;20.40;5.50;;;15.30;99.90;;;;;;5354580;26;20434;-86
2024/04/08 07:13:04;;;;;;;25.13;5.83;;;15.40;99.90;;;;;;5385361;26;20454;-86
2024/04/08 07:15:32;;;;;;;21.53;5.20;;;15.40;99.90;;;;;;5385196;26;20441;-86
2024/04/08 07:17:58;;;;;;;21.23;5.33;;;15.50;99.90;;;;;;5382679;26;20275;-86
2024/04/08 07:20:30;;;;;;;21.23;5.43;;;15.60;99.90;;;;;;5384700;26;20539;-86
2024/04/08 07:22:57;;;;;;;22.00;5.80;;;15.70;99.90;;;;;;5384584;26;20568;-84
2024/04/08 07:25:25;;;;;;;16.17;3.90;;;15.70;99.90;;;;;;5353605;26;20563;-86
2024/04/08 07:27:51;;;;;;;18.00;4.57;;;15.70;99.90;;;;;;5385079;26;20462;-86
2024/04/08 07:30:20;;;;;;;20.30;5.23;;;15.70;99.90;;;;;;5353751;26;20444;-86
2024/04/08 07:33:20;;;;;;;24.60;6.50;;;15.70;99.90;;;;;;5353838;26;20227;-87
2024/04/08 07:35:55;;;;;;;19.63;7.50;;;15.70;99.90;;;;;;5343935;26;20490;-87
2024/04/08 07:38:26;;;;;;;24.50;8.40;;;15.70;99.90;;;;;;5354202;26;20490;-86
2024/04/08 07:40:52;;;;;;;28.10;10.53;;;15.70;99.90;;;;;;5354178;26;20444;-86
2024/04/08 07:43:18;;;;;;;28.80;12.40;;;15.80;99.90;;;;;;5384544;26;20450;-86
2024/04/08 07:45:44;;;;;;;29.83;11.50;;;15.90;99.90;;;;;;5353523;26;20453;-87
2024/04/08 07:48:09;;;;;;;25.23;10.57;;;15.90;99.90;;;;;;5354711;26;20767;-87
2024/04/08 07:50:38;;;;;;;24.53;8.10;;;16.00;99.90;;;;;;5385010;26;20604;-86
2024/04/08 07:53:06;;;;;;;27.77;10.50;;;16.00;99.90;;;;;;5354156;26;20255;-86
2024/04/08 07:55:32;;;;;;;27.60;9.77;;;16.10;99.90;;;;;;5354091;26;20828;-86
2024/04/08 07:57:58;;;;;;;27.97;9.53;;;16.10;99.90;;;;;;5353398;26;20449;-87
2024/04/08 08:00:27;;;;;;;27.03;9.20;;;16.20;99.90;;;;;;5353242;26;20434;-87
2024/04/08 08:02:59;;;;;;;25.20;8.63;;;16.30;99.90;;;;;;5354502;26;20253;-87
2024/04/08 08:05:25;;;;;;;22.40;7.83;;;16.30;99.90;;;;;;5351559;26;20520;-87
2024/04/08 08:07:51;;;;;;;23.30;9.60;;;16.30;99.90;;;;;;5354019;26;20913;-87
2024/04/08 08:10:19;;;;;;;24.27;10.07;;;16.20;99.90;;;;;;5354534;26;20441;-87
2024/04/08 08:12:54;;;;;;;22.03;8.50;;;16.20;99.90;;;;;;5353500;26;20298;-87
2024/04/08 08:15:24;;;;;;;23.83;8.13;;;16.30;99.90;;;;;;5354213;26;20550;-87
2024/04/08 08:17:54;;;;;;;26.13;8.60;;;16.40;99.90;;;;;;5384750;26;20486;-87
2024/04/08 08:20:20;;;;;;;22.63;7.57;;;16.50;99.90;;;;;;5354268;26;20525;-87
2024/04/08 08:22:49;;;;;;;25.87;7.10;;;16.60;99.90;;;;;;5385984;26;20442;-87
2024/04/08 08:25:18;;;;;;;25.87;8.70;;;16.50;99.90;;;;;;5354229;26;20480;-86
2024/04/08 08:27:47;;;;;;;23.40;7.57;;;16.50;99.90;;;;;;5354445;26;20563;-87
2024/04/08 08:30:15;;;;;;;24.30;8.60;;;16.40;99.90;;;;;;5385307;26;20513;-87
2024/04/08 08:32:41;;;;;;;24.90;8.47;;;16.50;99.90;;;;;;5354113;26;21022;-87
2024/04/08 08:35:07;;;;;;;27.30;8.00;;;16.60;99.90;;;;;;5353777;26;20488;-87
2024/04/08 08:37:42;;;;;;;23.97;8.03;;;16.60;99.90;;;;;;5384809;26;20208;-86
2024/04/08 08:40:20;;;;;;;26.37;8.30;;;16.60;99.90;;;;;;5385793;26;20198;-87
2024/04/08 08:42:54;;;;;;;26.23;7.30;;;16.60;99.90;;;;;;5352520;26;20865;-87
2024/04/08 08:45:47;;;;;;;22.10;6.87;;;16.70;99.90;;;;;;5353564;26;20502;-87
2024/04/08 08:48:16;;;;;;;28.83;7.80;;;16.80;99.90;;;;;;5353321;26;20458;-86
2024/04/08 08:50:47;;;;;;;23.10;7.23;;;16.90;99.90;;;;;;5353204;26;20865;-87
2024/04/08 08:53:17;;;;;;;27.63;7.73;;;16.90;99.90;;;;;;5352998;26;20500;-87
2024/04/08 08:55:55;;;;;;;22.40;6.87;;;17.00;99.90;;;;;;5384687;26;20430;-87
2024/04/08 08:58:28;;;;;;;24.77;7.73;;;17.10;99.90;;;;;;5353761;26;20446;-87
2024/04/08 09:01:02;;;;;;;22.43;7.93;;;17.10;99.90;;;;;;5354147;26;20441;-87
2024/04/08 09:03:48;;;;;;;24.77;8.20;;;17.10;99.90;;;;;;5353732;26;20486;-87
2024/04/08 09:06:14;;;;;;;21.70;6.70;;;17.10;99.90;;;;;;5385457;26;20483;-87
2024/04/08 09:08:52;;;;;;;23.60;6.20;;;17.20;99.90;;;;;;5353117;26;20494;-87
2024/04/08 09:11:56;;;;;;;22.53;7.70;;;17.20;99.90;;;;;;5351683;26;21066;-87
2024/04/08 09:14:41;;;;;;;22.13;7.43;;;17.40;99.90;;;;;;5227160;26;20954;-85
2024/04/08 09:17:38;;;;;;;25.13;8.43;;;17.40;99.90;;;;;;5388497;26;20482;-87
2024/04/08 09:20:07;;;;;;;29.53;7.73;;;17.30;99.90;;;;;;5386832;26;20572;-88
2024/04/08 09:22:44;;;;;;;27.60;7.87;;;17.60;99.90;;;;;;5356192;26;20469;-87
2024/04/08 09:25:33;;;;;;;21.03;7.43;;;17.50;99.90;;;;;;5387456;26;20394;-87
2024/04/08 09:28:13;;;;;;;26.27;8.70;;;17.60;99.90;;;;;;5387254;26;20997;-87
2024/04/08 09:30:53;;;;;;;21.87;6.57;;;17.80;99.90;;;;;;5356424;26;20441;-87
2024/04/08 09:33:22;;;;;;;25.23;7.60;;;18.00;99.90;;;;;;5387576;26;20460;-87
2024/04/08 09:35:57;;;;;;;29.53;6.90;;;18.20;99.90;;;;;;5387729;26;21027;-87
2024/04/08 09:38:39;;;;;;;28.93;7.80;;;18.40;99.90;;;;;;5357363;26;20449;-87
2024/04/08 09:41:16;;;;;;;21.20;6.90;;;18.50;99.90;;;;;;5357459;26;20505;-88
2024/04/08 09:43:45;;;;;;;28.50;7.30;;;18.70;99.90;;;;;;5388301;26;20394;-87
2024/04/08 09:46:19;;;;;;;23.30;7.80;;;18.90;99.90;;;;;;5356040;26;20461;-87
2024/04/08 09:49:05;;;;;;;24.20;9.63;;;19.00;99.20;;;;;;5355502;26;20557;-87
2024/04/08 09:51:40;;;;;;;24.10;7.43;;;19.10;96.70;;;;;;5387711;26;20464;-87
2024/04/08 09:54:30;;;;;;;25.20;8.40;;;19.10;97.00;;;;;;5387668;26;20434;-87
2024/04/08 09:57:01;;;;;;;23.03;7.33;;;19.40;95.40;;;;;;5356481;26;20454;-87
2024/04/08 09:59:41;;;;;;;20.00;7.10;;;19.20;69.70;;;;;;5356456;26;20588;-87
2024/04/08 10:03:17;;;;;;;26.13;7.03;;;19.50;71.30;;;;;;5387088;26;20803;-87
2024/04/08 10:06:41;;;;;;;23.27;7.40;;;19.50;61.30;;;;;;5355925;26;20460;-88
2024/04/08 10:09:09;;;;;;;25.70;8.07;;;19.60;49.40;;;;;;5353891;26;20970;-87
2024/04/08 10:11:35;;;;;;;28.70;7.87;;;19.50;45.40;;;;;;5386686;26;20501;-87
2024/04/08 10:14:01;;;;;;;20.27;5.20;;;19.70;51.90;;;;;;5355968;26;20508;-87
2024/04/08 10:16:27;;;;;;;25.37;6.30;;;19.90;32.10;;;;;;5356929;26;21107;-88
2024/04/08 10:18:57;;;;;;;23.60;6.87;;;20.10;18.70;;;;;;5387343;26;20240;-87
2024/04/08 10:21:46;;;;;;;20.00;6.70;;;20.30;20.80;;;;;;5355244;26;20468;-87
2024/04/08 10:24:30;;;;;;;26.23;5.77;;;20.60;18.90;;;;;;5317470;26;20438;-85
2024/04/08 10:27:12;;;;;;;22.23;6.80;;;20.80;1.00;;;;;;5389352;26;20490;-87
2024/04/08 10:29:40;;;;;;;22.63;6.77;;;20.90;1.00;;;;;;5387909;26;20493;-86
2024/04/08 10:32:06;;;;;;;21.93;6.13;;;20.90;1.00;;;;;;5390833;26;20465;-85
2024/04/08 10:34:35;;;;;;;22.23;7.30;;;21.10;1.00;;;;;;5391068;26;20386;-85
2024/04/08 10:37:01;;;;;;;24.03;6.13;;;20.80;1.00;;;;;;5358483;26;20263;-85
2024/04/08 10:39:27;;;;;;;23.10;6.20;;;20.90;1.00;;;;;;5390842;26;20419;-86
2024/04/08 10:41:57;;;;;;;21.90;5.57;;;21.10;1.00;;;;;;5391749;26;20246;-86
2024/04/08 10:44:31;;;;;;;20.57;6.20;;;21.10;1.00;;;;;;5359794;26;20318;-85
2024/04/08 10:46:57;;;;;;;18.70;5.97;;;21.10;1.00;;;;;;5390093;26;20394;-85
2024/04/08 10:49:22;;;;;;;22.03;5.37;;;20.70;1.00;;;;;;5359621;26;20558;-85
2024/04/08 10:51:50;;;;;;;20.40;5.83;;;20.50;1.00;;;;;;5394595;26;20216;-86
2024/04/08 10:54:18;;;;;;;21.83;6.00;;;20.40;1.00;;;;;;5390726;26;20297;-85
2024/04/08 10:56:47;;;;;;;18.87;6.63;;;20.40;1.00;;;;;;5360998;26;20482;-85
2024/04/08 10:59:25;;;;;;;;;;;;;;;;;;;;;
2024/04/08 11:01:51;;;;;;;20.17;5.60;;;20.50;1.00;;;;;;5389335;26;20450;-86
2024/04/08 11:04:18;;;;;;;20.70;5.43;;;20.80;1.00;;;;;;5389443;26;20827;-87
2024/04/08 11:06:43;;;;;;;19.40;5.80;;;20.90;1.00;;;;;;5357266;26;20223;-87
2024/04/08 11:09:12;;;;;;;20.90;5.90;;;21.00;1.00;;;;;;5356267;26;20558;-87
2024/04/08 11:11:38;;;;;;;18.03;5.07;;;20.80;1.00;;;;;;5356317;26;20230;-87
2024/04/08 11:14:06;;;;;;;18.33;5.80;;;20.80;1.00;;;;;;5357164;26;20545;-87
2024/04/08 11:16:32;;;;;;;20.80;6.80;;;20.80;1.00;;;;;;5387100;26;20296;-86
2024/04/08 11:18:58;;;;;;;25.27;6.60;;;20.40;1.00;;;;;;5386749;26;20439;-85
2024/04/08 11:21:24;;;;;;;24.30;8.00;;;20.30;1.00;;;;;;5500863;20;20526;-84
2024/04/08 11:23:50;;;;;;;27.87;7.83;;;20.30;1.00;;;;;;5454353;26;20698;-84
2024/04/08 11:26:18;;;;;;;23.43;6.13;;;20.30;1.00;;;;;;5422999;26;20508;-84
2024/04/08 11:28:44;;;;;;;25.97;7.53;;;20.50;1.00;;;;;;5454911;26;20442;-84
2024/04/08 11:31:10;;;;;;;22.33;6.20;;;20.40;1.00;;;;;;5422758;26;20446;-84
2024/04/08 11:33:36;;;;;;;41.03;13.97;;;20.50;1.00;;;;;;5454634;26;20313;-84
2024/04/08 11:36:04;;;;;;;31.70;7.83;;;20.80;1.00;;;;;;5456752;26;20205;-85
2024/04/08 11:38:30;;;;;;;19.10;6.20;;;21.00;1.00;;;;;;5455606;26;20306;-84
2024/04/08 11:40:58;;;;;;;18.70;6.17;;;21.00;1.00;;;;;;5423412;26;20870;-84
2024/04/08 11:43:23;;;;;;;19.10;6.00;;;21.20;1.00;;;;;;5422889;26;20239;-84
2024/04/08 11:45:49;;;;;;;22.40;5.80;;;21.20;1.00;;;;;;5455029;26;20431;-84
2024/04/08 11:48:16;;;;;;;19.47;5.70;;;21.20;1.00;;;;;;5454744;26;20240;-84
2024/04/08 11:50:45;;;;;;;19.50;5.80;;;21.40;1.00;;;;;;5455711;26;20218;-84
2024/04/08 11:53:11;;;;;;;23.20;5.67;;;21.70;1.00;;;;;;5454648;26;20455;-84
2024/04/08 11:55:38;;;;;;;21.30;5.13;;;21.70;1.00;;;;;;5453967;26;20439;-84
2024/04/08 11:58:04;;;;;;;19.80;4.83;;;21.70;1.00;;;;;;5454213;26;20322;-84
2024/04/08 12:00:29;;;;;;;21.67;5.30;;;21.80;1.00;;;;;;5454721;26;20491;-84
2024/04/08 12:02:57;;;;;;;19.20;4.70;;;22.10;1.00;;;;;;5423453;26;20462;-84
2024/04/08 12:05:23;;;;;;;19.33;4.30;;;22.00;1.00;;;;;;5455152;26;20214;-84
2024/04/08 12:07:49;;;;;;;22.07;5.07;;;22.00;1.00;;;;;;5423466;26;20560;-84
2024/04/08 12:10:14;;;;;;;18.03;4.67;;;22.10;1.00;;;;;;5423427;26;20217;-84
2024/04/08 12:12:40;;;;;;;18.87;4.33;;;22.00;1.00;;;;;;5454669;26;20218;-84
2024/04/08 12:15:07;;;;;;;17.80;4.83;;;22.00;1.00;;;;;;5454825;26;20217;-84
2024/04/08 12:17:35;;;;;;;19.03;4.03;;;21.80;1.00;;;;;;5424489;26;20236;-81
2024/04/08 12:20:02;;;;;;;19.33;5.20;;;22.00;1.00;;;;;;5426012;26;20510;-81
2024/04/08 12:22:28;;;;;;;18.13;3.80;;;22.20;1.00;;;;;;5457981;26;20514;-81
2024/04/08 12:24:54;;;;;;;16.90;4.40;;;22.50;1.00;;;;;;5426700;26;20491;-81
2024/04/08 12:27:20;;;;;;;20.57;4.90;;;22.60;1.00;;;;;;5426682;26;20247;-81
2024/04/08 12:29:45;;;;;;;18.60;3.90;;;23.00;1.00;;;;;;5459136;26;20209;-81
2024/04/08 12:32:11;;;;;;;18.40;3.77;;;23.20;1.00;;;;;;5425379;26;20467;-81
2024/04/08 12:34:36;;;;;;;18.97;3.90;;;23.30;1.00;;;;;;5457253;26;20256;-81
2024/04/08 12:37:02;;;;;;;16.70;4.03;;;23.40;1.00;;;;;;5425239;26;20268;-81
2024/04/08 12:39:28;;;;;;;16.63;3.30;;;23.70;1.00;;;;;;5456812;26;20205;-81
2024/04/08 12:41:57;;;;;;;16.37;3.80;;;23.60;1.00;;;;;;5456196;26;20975;-80
2024/04/08 12:44:23;;;;;;;20.50;3.83;;;23.30;1.00;;;;;;5425373;26;20244;-81
2024/04/08 12:46:49;;;;;;;18.20;3.90;;;23.30;1.00;;;;;;5459408;26;20431;-81
2024/04/08 12:49:14;;;;;;;26.17;3.37;;;23.30;1.00;;;;;;5460624;26;20205;-80
2024/04/08 12:51:41;;;;;;;15.00;3.80;;;23.50;1.00;;;;;;5460508;26;20252;-80
2024/04/08 12:54:07;;;;;;;15.23;3.33;;;23.60;1.00;;;;;;5460872;26;20487;-81
2024/04/08 12:56:32;;;;;;;21.50;3.63;;;23.70;1.00;;;;;;5428158;26;20450;-80
2024/04/08 12:58:58;;;;;;;17.83;3.50;;;23.70;1.00;;;;;;5460238;26;20652;-81